createdAt,value
2022-10-07T00:00:54.499Z,96609.8
2022-10-07T00:01:57.343Z,96607.6
2022-10-07T00:02:59.874Z,96610.6
2022-10-07T00:04:01.858Z,96609
2022-10-07T00:05:04.332Z,96609.4
2022-10-07T00:06:06.802Z,96612.5
2022-10-07T00:07:09.257Z,96610.1
2022-10-07T00:08:11.464Z,96610.3
2022-10-07T00:09:13.642Z,96605.6
2022-10-07T00:10:16.117Z,96607.5
2022-10-07T00:11:18.584Z,96607.9
2022-10-07T00:12:21.073Z,96605.4
2022-10-07T00:13:23.545Z,96601.8
2022-10-07T00:14:25.463Z,96601.1
2022-10-07T00:15:27.649Z,96601.3
2022-10-07T00:16:30.481Z,96598.6
2022-10-07T00:17:32.447Z,96599.8
2022-10-07T00:18:34.909Z,96597.6
2022-10-07T00:19:37.423Z,96595.9
2022-10-07T00:20:39.887Z,96595.4
2022-10-07T00:21:41.803Z,96603
2022-10-07T00:22:44.282Z,96601.8
2022-10-07T00:23:45.906Z,96598.2
2022-10-07T00:24:48.094Z,96597.5
2022-10-07T00:25:50.287Z,96597.5
2022-10-07T00:26:52.751Z,96596.9
2022-10-07T00:27:55.239Z,96597.9
2022-10-07T00:28:57.701Z,96595.6
2022-10-07T00:30:00.220Z,96592.7
2022-10-07T00:31:03.186Z,96590.7
2022-10-07T00:32:05.770Z,96587.3
2022-10-07T00:33:08.229Z,96587
2022-10-07T00:34:10.141Z,96585.6
2022-10-07T00:35:12.654Z,96581.3
2022-10-07T00:36:16.547Z,96580.7
2022-10-07T00:37:19.021Z,96578.1
2022-10-07T00:38:21.489Z,96581.9
2022-10-07T00:39:23.693Z,96567.7
2022-10-07T00:40:25.607Z,96574.2
2022-10-07T00:41:27.822Z,96570.5
2022-10-07T00:42:30.295Z,96572
2022-10-07T00:43:32.798Z,96568.8
2022-10-07T00:44:35.300Z,96564.9
2022-10-07T00:45:37.892Z,96566.2
2022-10-07T00:46:40.433Z,96565
2022-10-07T00:47:44.140Z,96565
2022-10-07T00:48:46.872Z,96563.1
2022-10-07T00:49:49.346Z,96563.9
2022-10-07T00:50:51.893Z,96562.3
2022-10-07T00:51:53.832Z,96561.6
2022-10-07T00:52:56.004Z,96562.1
2022-10-07T00:53:58.474Z,96560
2022-10-07T00:55:00.964Z,96555.9
2022-10-07T00:56:03.176Z,96553.8
2022-10-07T00:57:04.820Z,96553.3
2022-10-07T00:58:07.018Z,96549
2022-10-07T00:59:09.228Z,96546
2022-10-07T01:00:11.432Z,96545.6
2022-10-07T01:01:14.203Z,96549.2
2022-10-07T01:02:16.772Z,96542.9
2022-10-07T01:03:18.730Z,96545.1
2022-10-07T01:04:20.926Z,96545.9
2022-10-07T01:05:23.143Z,96546.4
2022-10-07T01:06:25.667Z,96545.3
2022-10-07T01:07:28.168Z,96544.7
2022-10-07T01:08:30.630Z,96543.5
2022-10-07T01:09:32.561Z,96545.5
2022-10-07T01:10:35.025Z,96545.3
2022-10-07T01:11:37.219Z,96539.4
2022-10-07T01:12:39.708Z,96539.1
2022-10-07T01:13:41.707Z,96540.6
2022-10-07T01:14:44.188Z,96539.6
2022-10-07T01:15:46.660Z,96533.1
2022-10-07T01:16:49.611Z,96535.1
2022-10-07T01:17:52.291Z,96535.1
2022-10-07T01:18:54.465Z,96530.9
2022-10-07T01:19:56.412Z,96528.9
2022-10-07T01:20:58.896Z,96528.7
2022-10-07T01:22:01.135Z,96526.8
2022-10-07T01:23:03.631Z,96526.8
2022-10-07T01:24:05.822Z,96530.5
2022-10-07T01:25:08.311Z,96529.6
2022-10-07T01:26:10.794Z,96527.7
2022-10-07T01:27:12.692Z,96529.4
2022-10-07T01:28:15.460Z,96521.6
2022-10-07T01:29:17.738Z,96525.4
2022-10-07T01:30:19.978Z,96525.8
2022-10-07T01:31:22.906Z,96519.4
2022-10-07T01:32:25.250Z,96517.3
2022-10-07T01:33:27.733Z,96519.8
2022-10-07T01:34:29.357Z,96517.8
2022-10-07T01:35:31.552Z,96515.3
2022-10-07T01:36:34.035Z,96510.8
2022-10-07T01:37:36.522Z,96516.3
2022-10-07T01:38:38.749Z,96512.5
2022-10-07T01:39:40.917Z,96512.9
2022-10-07T01:40:43.392Z,96513.5
2022-10-07T01:41:45.861Z,96512.7
2022-10-07T01:42:48.334Z,96510.1
2022-10-07T01:43:50.506Z,96507.9
2022-10-07T01:44:52.413Z,96509.2
2022-10-07T01:45:55.168Z,96509.5
2022-10-07T01:46:57.753Z,96504.8
2022-10-07T01:47:59.945Z,96508.9
2022-10-07T01:49:02.419Z,96505.7
2022-10-07T01:50:04.617Z,96502
2022-10-07T01:51:06.812Z,96504.6
2022-10-07T01:52:09.006Z,96500.6
2022-10-07T01:53:11.675Z,96502.3
2022-10-07T01:54:14.381Z,96502.7
2022-10-07T01:55:16.300Z,96502.7
2022-10-07T01:56:18.531Z,96498.4
2022-10-07T01:57:21.003Z,96503.1
2022-10-07T01:58:23.479Z,96496.9
2022-10-07T01:59:25.949Z,96498.7
2022-10-07T02:00:28.436Z,96499.5
2022-10-07T02:01:31.371Z,96500.2
2022-10-07T02:02:33.675Z,96499.7
2022-10-07T02:03:36.409Z,96499.1
2022-10-07T02:04:38.961Z,96499.1
2022-10-07T02:05:41.430Z,96496.8
2022-10-07T02:06:43.622Z,96497.2
2022-10-07T02:07:47.250Z,96498.1
2022-10-07T02:08:50.070Z,96493.5
2022-10-07T02:09:52.568Z,96494.1
2022-10-07T02:10:54.492Z,96492.5
2022-10-07T02:11:56.963Z,96493.4
2022-10-07T02:12:59.452Z,96496.1
2022-10-07T02:14:01.667Z,96496.1
2022-10-07T02:15:03.865Z,96491.7
2022-10-07T02:17:12.564Z,96493.1
2022-10-07T02:18:14.775Z,96490.4
2022-10-07T02:19:17.256Z,96490.8
2022-10-07T02:20:19.733Z,96490.4
2022-10-07T02:21:21.904Z,96492.6
2022-10-07T02:22:24.375Z,96490.5
2022-10-07T02:23:26.842Z,96489.2
2022-10-07T02:24:29.395Z,96490.3
2022-10-07T02:25:31.884Z,96488.8
2022-10-07T02:26:34.361Z,96488.5
2022-10-07T02:27:36.546Z,96486.1
2022-10-07T02:28:39.242Z,96484.5
2022-10-07T02:29:41.557Z,96485.5
2022-10-07T02:30:44.240Z,96484.9
2022-10-07T02:31:46.812Z,96482.4
2022-10-07T02:32:49.038Z,96486.8
2022-10-07T02:33:51.514Z,96481.9
2022-10-07T02:34:53.436Z,96484.7
2022-10-07T02:35:55.904Z,96478.8
2022-10-07T02:36:57.813Z,96482.3
2022-10-07T02:38:00.024Z,96484.9
2022-10-07T02:39:01.958Z,96480.5
2022-10-07T02:41:09.984Z,96479.3
2022-10-07T02:42:12.469Z,96473.5
2022-10-07T02:43:14.670Z,96475.9
2022-10-07T02:44:16.930Z,96473.9
2022-10-07T02:46:25.286Z,96473
2022-10-07T02:47:27.689Z,96468
2022-10-07T02:48:29.899Z,96468.9
2022-10-07T02:49:32.411Z,96470.9
2022-10-07T02:50:34.601Z,96468
2022-10-07T02:51:37.076Z,96471.5
2022-10-07T02:52:39.546Z,96470.6
2022-10-07T02:53:41.730Z,96471
2022-10-07T02:54:43.921Z,96471.6
2022-10-07T02:55:46.120Z,96465.1
2022-10-07T02:56:48.637Z,96464
2022-10-07T02:57:51.122Z,96463.2
2022-10-07T02:58:53.585Z,96465.1
2022-10-07T02:59:56.060Z,96465.5
2022-10-07T03:00:58.525Z,96461.1
2022-10-07T03:02:01.354Z,96460.6
2022-10-07T03:03:03.910Z,96461.9
2022-10-07T03:04:06.494Z,96464.6
2022-10-07T03:05:08.796Z,96461
2022-10-07T03:06:11.272Z,96458
2022-10-07T03:07:13.466Z,96455.6
2022-10-07T03:08:16.357Z,96458.9
2022-10-07T03:09:18.836Z,96461.4
2022-10-07T03:10:21.310Z,96458.6
2022-10-07T03:11:23.244Z,96460.3
2022-10-07T03:12:25.483Z,96459.1
2022-10-07T03:13:27.961Z,96459.6
2022-10-07T03:14:29.908Z,96459.8
2022-10-07T03:15:32.484Z,96461.2
2022-10-07T03:16:35.184Z,96458.2
2022-10-07T03:17:37.736Z,96458.9
2022-10-07T03:18:40.207Z,96455.3
2022-10-07T03:19:42.415Z,96455.2
2022-10-07T03:20:44.623Z,96454.8
2022-10-07T03:21:46.826Z,96456.3
2022-10-07T03:22:49.299Z,96453.1
2022-10-07T03:23:51.772Z,96456.9
2022-10-07T03:24:54.250Z,96454.9
2022-10-07T03:25:56.421Z,96456
2022-10-07T03:26:58.642Z,96457.3
2022-10-07T03:28:01.411Z,96456.6
2022-10-07T03:29:04.010Z,96452.5
2022-10-07T03:30:06.200Z,96458.8
2022-10-07T03:31:09.041Z,96462.3
2022-10-07T03:32:11.360Z,96452
2022-10-07T03:33:13.836Z,96453.2
2022-10-07T03:34:16.365Z,96450.4
2022-10-07T03:35:18.877Z,96451
2022-10-07T03:36:21.348Z,96453.5
2022-10-07T03:37:23.865Z,96450.4
2022-10-07T03:38:26.058Z,96454.1
2022-10-07T03:39:28.532Z,96451
2022-10-07T03:40:30.731Z,96453.3
2022-10-07T03:41:32.910Z,96455
2022-10-07T03:42:35.720Z,96451.8
2022-10-07T03:43:38.343Z,96454.9
2022-10-07T03:44:40.909Z,96447.8
2022-10-07T03:45:43.404Z,96446.3
2022-10-07T03:46:45.988Z,96449.9
2022-10-07T03:47:48.744Z,96446.4
2022-10-07T03:48:51.269Z,96447.3
2022-10-07T03:49:53.481Z,96447
2022-10-07T03:50:55.982Z,96444.4
2022-10-07T03:51:58.451Z,96446.4
2022-10-07T03:53:00.358Z,96450.1
2022-10-07T03:54:02.544Z,96444.2
2022-10-07T03:55:05.018Z,96445.8
2022-10-07T03:56:07.205Z,96448.7
2022-10-07T03:57:09.672Z,96444.6
2022-10-07T03:58:11.886Z,96446.2
2022-10-07T03:59:14.401Z,96446
2022-10-07T04:00:16.694Z,96443.9
2022-10-07T04:01:19.485Z,96447.5
2022-10-07T04:02:21.494Z,96445.3
2022-10-07T04:03:24.114Z,96445.9
2022-10-07T04:04:26.719Z,96446
2022-10-07T04:05:29.218Z,96440
2022-10-07T04:06:31.705Z,96442.2
2022-10-07T04:07:34.195Z,96440.5
2022-10-07T04:08:36.663Z,96439.5
2022-10-07T04:09:39.151Z,96439.9
2022-10-07T04:10:41.616Z,96441.3
2022-10-07T04:11:44.088Z,96440.4
2022-10-07T04:12:45.970Z,96436.2
2022-10-07T04:13:48.457Z,96438.7
2022-10-07T04:14:50.749Z,96439
2022-10-07T04:15:53.228Z,96439.1
2022-10-07T04:16:55.002Z,96435.5
2022-10-07T04:17:57.477Z,96438
2022-10-07T04:18:59.675Z,96433.5
2022-10-07T04:20:02.151Z,96433.4
2022-10-07T04:21:04.039Z,96438.8
2022-10-07T04:23:11.223Z,96433.1
2022-10-07T04:24:13.693Z,96430.7
2022-10-07T04:25:16.173Z,96428.7
2022-10-07T04:26:18.504Z,96427.3
2022-10-07T04:28:26.344Z,96424
2022-10-07T04:29:28.732Z,96423
2022-10-07T04:30:31.114Z,96420.3
2022-10-07T04:31:34.075Z,96417.5
2022-10-07T04:32:36.183Z,96414.3
2022-10-07T04:33:38.656Z,96410.9
2022-10-07T04:34:41.140Z,96410.7
2022-10-07T04:35:42.777Z,96404.3
2022-10-07T04:36:45.242Z,96410.5
2022-10-07T04:37:49.060Z,96409.6
2022-10-07T04:38:51.005Z,96410.1
2022-10-07T04:40:57.913Z,96409.2
2022-10-07T04:42:00.107Z,96408.1
2022-10-07T04:43:02.572Z,96407.7
2022-10-07T04:44:04.747Z,96407
2022-10-07T04:45:06.940Z,96411.9
2022-10-07T04:46:09.173Z,96414.3
2022-10-07T04:47:11.818Z,96408.7
2022-10-07T04:48:13.899Z,96403.8
2022-10-07T04:49:16.380Z,96406.2
2022-10-07T04:50:18.572Z,96407.9
2022-10-07T04:51:20.763Z,96405.8
2022-10-07T04:52:23.239Z,96401.5
2022-10-07T04:53:25.730Z,96409.7
2022-10-07T04:54:28.207Z,96409.6
2022-10-07T04:55:30.403Z,96412.5
2022-10-07T04:56:32.354Z,96406.7
2022-10-07T04:57:34.550Z,96409.1
2022-10-07T04:58:36.776Z,96403.1
2022-10-07T05:00:43.908Z,96400.5
2022-10-07T05:01:46.538Z,96402.6
2022-10-07T05:02:49.074Z,96406.4
2022-10-07T05:03:51.268Z,96407.2
2022-10-07T05:04:53.467Z,96401.5
2022-10-07T05:05:55.963Z,96406.2
2022-10-07T05:06:58.167Z,96407.5
2022-10-07T05:08:00.642Z,96406.8
2022-10-07T05:09:03.126Z,96404.3
2022-10-07T05:10:05.608Z,96406.9
2022-10-07T05:11:08.083Z,96401.1
2022-10-07T05:12:10.283Z,96405.4
2022-10-07T05:13:12.752Z,96404.3
2022-10-07T05:14:15.233Z,96404.4
2022-10-07T05:15:17.702Z,96406.4
2022-10-07T05:16:20.172Z,96406.2
2022-10-07T05:17:22.819Z,96404.3
2022-10-07T05:18:25.429Z,96405.8
2022-10-07T05:19:27.631Z,96405.6
2022-10-07T05:20:29.540Z,96406.6
2022-10-07T05:21:32.010Z,96408.7
2022-10-07T05:22:34.223Z,96402.3
2022-10-07T05:23:36.422Z,96402.9
2022-10-07T05:24:38.917Z,96404.3
2022-10-07T05:25:41.111Z,96403.4
2022-10-07T05:26:43.332Z,96404.9
2022-10-07T05:27:46.710Z,96402.3
2022-10-07T05:28:50.165Z,96405.9
2022-10-07T05:29:52.367Z,96406.2
2022-10-07T05:30:54.574Z,96408.7
2022-10-07T05:33:02.378Z,96404.3
2022-10-07T05:34:04.878Z,96405.8
2022-10-07T05:35:06.504Z,96404.3
2022-10-07T05:36:08.735Z,96403.4
2022-10-07T05:37:11.218Z,96401.8
2022-10-07T05:38:13.142Z,96400.8
2022-10-07T05:39:15.333Z,96401.5
2022-10-07T05:40:17.834Z,96399.8
2022-10-07T05:41:20.543Z,96402.1
2022-10-07T05:42:22.467Z,96400.9
2022-10-07T05:43:24.406Z,96400
2022-10-07T05:44:26.634Z,96399.5
2022-10-07T05:45:29.124Z,96398.7
2022-10-07T05:46:31.178Z,96397.7
2022-10-07T05:47:33.381Z,96399
2022-10-07T05:49:40.907Z,96393.4
2022-10-07T05:50:43.147Z,96396.4
2022-10-07T05:51:45.379Z,96393
2022-10-07T05:52:47.581Z,96395.1
2022-10-07T05:53:49.790Z,96395.3
2022-10-07T05:54:51.722Z,96392.9
2022-10-07T05:55:53.673Z,96390
2022-10-07T05:56:56.158Z,96392.4
2022-10-07T05:57:58.355Z,96390.8
2022-10-07T05:59:00.277Z,96397.7
2022-10-07T06:00:02.184Z,96395
2022-10-07T06:02:09.407Z,96392.8
2022-10-07T06:03:12.862Z,96400
2022-10-07T06:04:15.176Z,96403.5
2022-10-07T06:05:17.687Z,96399.6
2022-10-07T06:06:19.891Z,96404
2022-10-07T06:08:26.813Z,96402.2
2022-10-07T06:09:29.292Z,96404.6
2022-10-07T06:10:31.765Z,96403.1
2022-10-07T06:11:34.015Z,96407
2022-10-07T06:12:36.202Z,96408.1
2022-10-07T06:13:38.378Z,96402
2022-10-07T06:14:40.307Z,96407.1
2022-10-07T06:15:42.511Z,96410.4
2022-10-07T06:16:45.115Z,96411.2
2022-10-07T06:17:49.703Z,96416.4
2022-10-07T06:18:52.276Z,96413.8
2022-10-07T06:19:54.514Z,96411.6
2022-10-07T06:20:56.181Z,96413.5
2022-10-07T06:21:58.412Z,96414.8
2022-10-07T06:23:00.876Z,96417.1
2022-10-07T06:24:03.364Z,96411.8
2022-10-07T06:25:05.573Z,96414.1
2022-10-07T06:26:07.490Z,96416.6
2022-10-07T06:27:09.981Z,96411
2022-10-07T06:28:12.831Z,96409.1
2022-10-07T06:29:15.143Z,96410.3
2022-10-07T06:30:17.621Z,96407.9
2022-10-07T06:31:20.212Z,96410
2022-10-07T06:32:22.252Z,96410.7
2022-10-07T06:33:24.717Z,96410.8
2022-10-07T06:34:27.224Z,96410
2022-10-07T06:35:29.700Z,96409.3
2022-10-07T06:36:31.959Z,96406.8
2022-10-07T06:37:34.468Z,96409.8
2022-10-07T06:38:36.957Z,96409.4
2022-10-07T06:39:38.574Z,96413.4
2022-10-07T06:40:40.782Z,96407.4
2022-10-07T06:41:43.028Z,96411.5
2022-10-07T06:42:45.249Z,96409.4
2022-10-07T06:43:47.188Z,96411.6
2022-10-07T06:44:49.659Z,96409.3
2022-10-07T06:45:51.817Z,96414.4
2022-10-07T06:46:54.094Z,96415.3
2022-10-07T06:47:56.296Z,96414.1
2022-10-07T06:48:58.196Z,96414.1
2022-10-07T06:50:00.691Z,96413
2022-10-07T06:51:02.893Z,96411.2
2022-10-07T06:52:05.151Z,96412.1
2022-10-07T06:53:07.369Z,96409.7
2022-10-07T06:54:09.886Z,96410.4
2022-10-07T06:55:12.371Z,96413.2
2022-10-07T06:56:14.300Z,96411.6
2022-10-07T06:58:21.219Z,96410.1
2022-10-07T06:59:23.824Z,96408.8
2022-10-07T07:00:26.516Z,96411.3
2022-10-07T07:01:29.101Z,96411.2
2022-10-07T07:02:31.823Z,96407.3
2022-10-07T07:03:33.796Z,96404.8
2022-10-07T07:04:36.266Z,96409
2022-10-07T07:06:43.315Z,96409.8
2022-10-07T07:07:47.340Z,96408.1
2022-10-07T07:08:50.857Z,96413.8
2022-10-07T07:09:53.060Z,96410
2022-10-07T07:10:55.259Z,96409
2022-10-07T07:11:57.626Z,96407.3
2022-10-07T07:14:02.069Z,96407.2
2022-10-07T07:15:04.561Z,96404.5
2022-10-07T07:16:06.828Z,96405.6
2022-10-07T07:17:09.586Z,96404.7
2022-10-07T07:18:12.083Z,96402.7
2022-10-07T07:19:14.301Z,96406.6
2022-10-07T07:20:16.230Z,96404.5
2022-10-07T07:21:18.727Z,96405.8
2022-10-07T07:22:20.966Z,96407.9
2022-10-07T07:23:23.609Z,96404.3
2022-10-07T07:24:25.831Z,96407
2022-10-07T07:25:28.005Z,96409.7
2022-10-07T07:26:30.506Z,96405.8
2022-10-07T07:27:33.194Z,96406.8
2022-10-07T07:28:35.914Z,96407.6
2022-10-07T07:29:38.271Z,96406.8
2022-10-07T07:30:40.765Z,96409.2
2022-10-07T07:31:43.132Z,96409.4
2022-10-07T07:32:45.630Z,96408.2
2022-10-07T07:33:48.112Z,96408.8
2022-10-07T07:34:50.796Z,96409.4
2022-10-07T07:35:53.295Z,96411.5
2022-10-07T07:36:55.776Z,96407.6
2022-10-07T07:37:58.061Z,96404.3
2022-10-07T07:39:00.065Z,96408.4
2022-10-07T07:40:02.552Z,96406.5
2022-10-07T07:41:04.486Z,96405.6
2022-10-07T07:42:06.665Z,96400.2
2022-10-07T07:43:08.599Z,96402
2022-10-07T07:44:10.492Z,96400.3
2022-10-07T07:45:12.470Z,96400.2
2022-10-07T07:46:14.875Z,96399.8
2022-10-07T07:47:17.173Z,96398.3
2022-10-07T07:48:19.690Z,96394.1
2022-10-07T07:49:21.911Z,96396.4
2022-10-07T07:50:24.531Z,96396.6
2022-10-07T07:51:26.576Z,96396.8
2022-10-07T07:52:28.774Z,96396.4
2022-10-07T07:53:30.992Z,96393
2022-10-07T07:54:33.327Z,96394.3
2022-10-07T07:55:35.549Z,96392.6
2022-10-07T07:56:37.759Z,96390.1
2022-10-07T07:57:39.968Z,96388.4
2022-10-07T07:58:42.171Z,96390.7
2022-10-07T07:59:44.380Z,96389.3
2022-10-07T08:00:46.619Z,96386.9
2022-10-07T08:01:48.243Z,96388.3
2022-10-07T08:02:50.362Z,96387.4
2022-10-07T08:03:52.692Z,96386.4
2022-10-07T08:04:54.698Z,96385.9
2022-10-07T08:05:56.898Z,96384.1
2022-10-07T08:06:58.830Z,96382.5
2022-10-07T08:08:01.030Z,96383.6
2022-10-07T08:09:03.546Z,96383.8
2022-10-07T08:10:06.166Z,96383.6
2022-10-07T08:11:08.669Z,96383.9
2022-10-07T08:12:10.881Z,96385.5
2022-10-07T08:13:13.102Z,96385.4
2022-10-07T08:14:15.569Z,96385.2
2022-10-07T08:15:18.067Z,96385.3
2022-10-07T08:16:20.287Z,96390.2
2022-10-07T08:17:22.811Z,96391
2022-10-07T08:18:24.455Z,96389.7
2022-10-07T08:19:26.398Z,96390.2
2022-10-07T08:20:28.590Z,96387.8
2022-10-07T08:21:31.067Z,96392.9
2022-10-07T08:22:33.318Z,96385.6
2022-10-07T08:23:34.964Z,96391.5
2022-10-07T08:24:37.480Z,96391.8
2022-10-07T08:25:39.745Z,96384.8
2022-10-07T08:26:41.962Z,96383.8
2022-10-07T08:27:45.898Z,96388.6
2022-10-07T08:28:48.933Z,96386.9
2022-10-07T08:29:51.424Z,96387.4
2022-10-07T08:30:53.914Z,96379.5
2022-10-07T08:31:56.294Z,96383.2
2022-10-07T08:34:03.781Z,96378.1
2022-10-07T08:35:05.990Z,96378.8
2022-10-07T08:36:07.837Z,96375.5
2022-10-07T08:37:10.021Z,96377.6
2022-10-07T08:39:17.284Z,96374.3
2022-10-07T08:40:19.497Z,96376
2022-10-07T08:41:21.786Z,96373.1
2022-10-07T08:42:24.443Z,96371.7
2022-10-07T08:43:26.391Z,96369.7
2022-10-07T08:44:28.602Z,96370.1
2022-10-07T08:45:30.819Z,96368.2
2022-10-07T08:46:33.285Z,96367.5
2022-10-07T08:47:35.623Z,96366
2022-10-07T08:48:37.559Z,96363.6
2022-10-07T08:49:39.778Z,96362.2
2022-10-07T08:50:41.993Z,96363.9
2022-10-07T08:51:43.687Z,96362.5
2022-10-07T08:52:45.885Z,96361.4
2022-10-07T08:53:48.366Z,96361
2022-10-07T08:54:50.866Z,96363.2
2022-10-07T08:55:53.097Z,96359.3
2022-10-07T08:56:55.363Z,96363.8
2022-10-07T08:57:57.849Z,96362.3
2022-10-07T08:59:00.331Z,96364.7
2022-10-07T09:00:02.250Z,96361
2022-10-07T09:01:04.653Z,96363.9
2022-10-07T09:02:06.634Z,96363.1
2022-10-07T09:03:08.837Z,96364.1
2022-10-07T09:04:11.057Z,96360.8
2022-10-07T09:05:13.617Z,96358
2022-10-07T09:06:15.565Z,96356.5
2022-10-07T09:07:17.792Z,96356.8
2022-10-07T09:08:19.720Z,96355.2
2022-10-07T09:09:21.929Z,96354.1
2022-10-07T09:10:24.110Z,96354.5
2022-10-07T09:11:26.362Z,96350
2022-10-07T09:12:28.884Z,96354
2022-10-07T09:13:31.391Z,96350.4
2022-10-07T09:14:33.573Z,96348.6
2022-10-07T09:15:36.058Z,96346
2022-10-07T09:16:37.823Z,96350.3
2022-10-07T09:17:39.789Z,96347.5
2022-10-07T09:18:42.068Z,96347
2022-10-07T09:19:44.299Z,96347.8
2022-10-07T09:20:46.510Z,96347
2022-10-07T09:21:48.994Z,96344.8
2022-10-07T09:22:51.196Z,96348.1
2022-10-07T09:23:53.674Z,96345.3
2022-10-07T09:24:57.586Z,96343.2
2022-10-07T09:25:59.767Z,96344.7
2022-10-07T09:27:02.272Z,96342.4
2022-10-07T09:28:05.034Z,96339
2022-10-07T09:29:07.188Z,96344.7
2022-10-07T09:30:09.120Z,96338.9
2022-10-07T09:31:11.617Z,96337.2
2022-10-07T09:32:14.284Z,96339.2
2022-10-07T09:33:16.381Z,96337
2022-10-07T09:34:18.872Z,96333
2022-10-07T09:35:21.093Z,96328.7
2022-10-07T09:36:23.575Z,96327.9
2022-10-07T09:37:25.783Z,96327.9
2022-10-07T09:38:28.315Z,96327.4
2022-10-07T09:39:30.887Z,96333.1
2022-10-07T09:40:33.372Z,96328.7
2022-10-07T09:41:35.295Z,96329.7
2022-10-07T09:42:37.780Z,96327.7
2022-10-07T09:43:40.384Z,96332.1
2022-10-07T09:44:42.882Z,96329
2022-10-07T09:45:45.086Z,96332.1
2022-10-07T09:46:47.855Z,96331.8
2022-10-07T09:47:50.675Z,96335.4
2022-10-07T09:48:53.145Z,96334.1
2022-10-07T09:49:55.661Z,96333.5
2022-10-07T09:50:58.134Z,96333.4
2022-10-07T09:52:00.614Z,96335.8
2022-10-07T09:53:02.541Z,96332.3
2022-10-07T09:54:04.743Z,96329.4
2022-10-07T09:55:07.224Z,96333.2
2022-10-07T09:56:09.716Z,96331.2
2022-10-07T09:58:19.715Z,96330.6
2022-10-07T09:59:22.253Z,96326.1
2022-10-07T10:00:24.776Z,96322.2
2022-10-07T10:01:27.005Z,96319.6
2022-10-07T10:02:29.819Z,96322.2
2022-10-07T10:03:33.319Z,96319.7
2022-10-07T10:04:36.026Z,96320
2022-10-07T10:05:38.535Z,96316.1
2022-10-07T10:06:40.746Z,96319.4
2022-10-07T10:07:42.609Z,96317.7
2022-10-07T10:08:45.649Z,96313.6
2022-10-07T10:09:48.173Z,96315.5
2022-10-07T10:10:50.649Z,96310.7
2022-10-07T10:11:53.045Z,96317.9
2022-10-07T10:12:55.285Z,96317.3
2022-10-07T10:13:57.905Z,96313.2
2022-10-07T10:15:00.455Z,96314.6
2022-10-07T10:16:03.379Z,96313
2022-10-07T10:17:05.825Z,96311.9
2022-10-07T10:18:08.081Z,96313
2022-10-07T10:19:10.648Z,96312.1
2022-10-07T10:20:13.133Z,96309.9
2022-10-07T10:21:15.384Z,96313.9
2022-10-07T10:22:17.857Z,96315
2022-10-07T10:23:20.329Z,96314.5
2022-10-07T10:24:22.814Z,96314.2
2022-10-07T10:25:25.012Z,96313
2022-10-07T10:27:32.569Z,96311.2
2022-10-07T10:28:35.165Z,96311.5
2022-10-07T10:29:37.529Z,96310.6
2022-10-07T10:30:40.171Z,96308.8
2022-10-07T10:31:42.855Z,96308.6
2022-10-07T10:32:46.901Z,96303.6
2022-10-07T10:33:49.858Z,96301.9
2022-10-07T10:34:51.782Z,96304.1
2022-10-07T10:35:54.266Z,96303.9
2022-10-07T10:36:56.624Z,96298.6
2022-10-07T10:37:59.083Z,96299.5
2022-10-07T10:39:01.286Z,96299
2022-10-07T10:40:03.513Z,96297.7
2022-10-07T10:41:05.721Z,96294.5
2022-10-07T10:42:07.926Z,96296.4
2022-10-07T10:43:10.121Z,96291.9
2022-10-07T10:44:12.595Z,96292.2
2022-10-07T10:45:15.092Z,96296.1
2022-10-07T10:46:17.974Z,96289.8
2022-10-07T10:47:20.622Z,96286.4
2022-10-07T10:48:22.835Z,96290.1
2022-10-07T10:49:25.319Z,96288.7
2022-10-07T10:50:27.801Z,96286.6
2022-10-07T10:51:30.277Z,96284.9
2022-10-07T10:52:32.789Z,96283.8
2022-10-07T10:53:35.290Z,96282.1
2022-10-07T10:54:37.485Z,96283.3
2022-10-07T10:55:39.976Z,96280.9
2022-10-07T10:56:41.867Z,96284.2
2022-10-07T10:57:43.810Z,96280.4
2022-10-07T10:58:45.988Z,96277.2
2022-10-07T10:59:48.228Z,96276.4
2022-10-07T11:00:50.786Z,96274.6
2022-10-07T11:01:53.707Z,96278.2
2022-10-07T11:02:56.270Z,96277.3
2022-10-07T11:03:58.256Z,96274.4
2022-10-07T11:05:00.196Z,96273.2
2022-10-07T11:06:02.734Z,96268.9
2022-10-07T11:07:05.226Z,96276.1
2022-10-07T11:08:07.185Z,96274.4
2022-10-07T11:09:09.668Z,96273.8
2022-10-07T11:10:12.145Z,96268.2
2022-10-07T11:11:14.328Z,96272.1
2022-10-07T11:12:16.793Z,96264
2022-10-07T11:13:19.111Z,96265.1
2022-10-07T11:14:20.504Z,96261.9
2022-10-07T11:15:22.674Z,96258.1
2022-10-07T11:16:25.122Z,96254
2022-10-07T11:17:27.251Z,96260.2
2022-10-07T11:18:29.746Z,96251.9
2022-10-07T11:19:31.961Z,96253.3
2022-10-07T11:20:34.292Z,96246.7
2022-10-07T11:21:36.766Z,96246.7
2022-10-07T11:22:38.987Z,96251
2022-10-07T11:23:41.495Z,96252.2
2022-10-07T11:24:43.398Z,96247
2022-10-07T11:25:45.598Z,96249.5
2022-10-07T11:26:48.089Z,96248.5
2022-10-07T11:27:50.289Z,96244.3
2022-10-07T11:28:52.222Z,96243.4
2022-10-07T11:29:54.705Z,96242.5
2022-10-07T11:30:57.106Z,96235.5
2022-10-07T11:31:59.718Z,96232.7
2022-10-07T11:33:02.247Z,96232.7
2022-10-07T11:34:04.741Z,96232.7
2022-10-07T11:35:06.933Z,96232.5
2022-10-07T11:36:09.131Z,96233
2022-10-07T11:37:11.603Z,96230.9
2022-10-07T11:38:13.858Z,96229.9
2022-10-07T11:39:16.095Z,96227.1
2022-10-07T11:40:18.355Z,96227.1
2022-10-07T11:41:20.862Z,96229.6
2022-10-07T11:42:23.298Z,96225.8
2022-10-07T11:43:25.203Z,96218.9
2022-10-07T11:44:27.692Z,96219.9
2022-10-07T11:45:30.161Z,96215.6
2022-10-07T11:46:32.586Z,96216.4
2022-10-07T11:47:35.210Z,96214.1
2022-10-07T11:48:37.751Z,96209.7
2022-10-07T11:49:40.004Z,96211.5
2022-10-07T11:50:42.228Z,96209.9
2022-10-07T11:51:44.125Z,96203
2022-10-07T11:52:47.812Z,96204.3
2022-10-07T11:53:50.346Z,96199.2
2022-10-07T11:54:52.877Z,96199.3
2022-10-07T11:55:56.589Z,96198.5
2022-10-07T11:56:58.512Z,96196.5
2022-10-07T11:58:00.709Z,96201.5
2022-10-07T11:59:02.933Z,96199.9
2022-10-07T12:00:04.915Z,96194.5
2022-10-07T12:01:07.479Z,96191.9
2022-10-07T12:02:09.682Z,96193.5
2022-10-07T12:03:16.422Z,96191.3
2022-10-07T12:04:18.432Z,96190.5
2022-10-07T12:05:20.659Z,96187.5
2022-10-07T12:06:23.159Z,96188.3
2022-10-07T12:07:25.652Z,96186.9
2022-10-07T12:08:27.867Z,96183
2022-10-07T12:09:30.080Z,96181.4
2022-10-07T12:10:32.723Z,96181.5
2022-10-07T12:11:35.205Z,96181.6
2022-10-07T12:12:37.393Z,96180.5
2022-10-07T12:13:39.893Z,96181.8
2022-10-07T12:14:42.277Z,96178.6
2022-10-07T12:15:44.761Z,96180.6
2022-10-07T12:16:47.097Z,96177.5
2022-10-07T12:17:48.998Z,96174.6
2022-10-07T12:18:51.508Z,96175.3
2022-10-07T12:19:54.054Z,96173.7
2022-10-07T12:20:56.600Z,96169.9
2022-10-07T12:21:59.082Z,96167.1
2022-10-07T12:23:01.495Z,96162.8
2022-10-07T12:24:03.694Z,96161.9
2022-10-07T12:26:11.190Z,96160.9
2022-10-07T12:27:13.670Z,96159.5
2022-10-07T12:28:16.163Z,96152.5
2022-10-07T12:29:18.248Z,96154.7
2022-10-07T12:30:20.725Z,96154.2
2022-10-07T12:31:23.531Z,96146.8
2022-10-07T12:32:26.258Z,96147.8
2022-10-07T12:33:28.191Z,96146.1
2022-10-07T12:34:30.409Z,96141.5
2022-10-07T12:35:32.697Z,96141.5
2022-10-07T12:36:34.918Z,96135.5
2022-10-07T12:37:36.887Z,96132.3
2022-10-07T12:38:39.389Z,96134.7
2022-10-07T12:39:41.619Z,96132.7
2022-10-07T12:40:43.818Z,96133.4
2022-10-07T12:41:46.076Z,96134.1
2022-10-07T12:42:49.247Z,96133.6
2022-10-07T12:43:51.734Z,96130.8
2022-10-07T12:44:53.979Z,96130.4
2022-10-07T12:45:56.562Z,96130.7
2022-10-07T12:46:59.154Z,96128.5
2022-10-07T12:48:01.688Z,96129
2022-10-07T12:49:03.895Z,96126.6
2022-10-07T12:50:06.146Z,96127.9
2022-10-07T12:51:08.134Z,96125.7
2022-10-07T12:52:10.411Z,96127
2022-10-07T12:53:12.892Z,96122.7
2022-10-07T12:54:14.799Z,96123.1
2022-10-07T12:55:17.020Z,96127.6
2022-10-07T12:56:19.248Z,96121
2022-10-07T12:57:21.768Z,96126.4
2022-10-07T12:58:23.977Z,96122.8
2022-10-07T12:59:25.896Z,96118.6
2022-10-07T13:00:28.378Z,96119.3